ROMMA est une association bénévole à but non lucratif. Votre soutien est indispensable : ADHERER à ROMMA ou FAIRE un DON

Crempigny - (74, Haute-Savoie)

Albanais-Montagne des Princes (500 m)   Longitude: 05° 54' 5" E   Latitude: 45° 57' 0" N Station partenaire n°10
 

Détail journalier du     <<     >>

Température Precipitation Humidité Pression Vent Dir Rafale Dir. rafale Ensol. 20 cm au dessus du sol
Heure (°C) (mm) (%) (hPa) (km/h) (km/h) (min) (°C)
01:00 4.70939987NO15N04.4
02:00 4.50939975ONO15NO04.4
03:00 4.80929967NO16O04.4
04:00 5.10909967NO15NO04.4
05:00 5.30889958NO16ONO05.0
06:00 5.70859947NO18NO05.6
07:00 6.30819947NO18NO05.6
08:00 6.60819937NO18O06.1
09:00 7.007999410NNO23N06.7
10:00 8.20779946NO15NNO2011.1
11:00 9.20739948NO18NNE2510.0
12:00 8.80739955NO15NNE08.9
13:00 8.30819949N19NNE07.8
14:00 8.10839962ESE10NO08.3
15:00 7.70869961ESE8E07.2
16:00 7.60869972ENE6ENE07.2
17:00 7.60849973N11NNE07.2
18:00 7.20869982N5N06.7
19:00 7.40849992N6N06.7
20:00 7.10869991N6N06.1
21:00 7.308510002N8N06.1
22:00 6.808710011N5N06.1
23:00 6.309010013N10NO05.0
minuit 6.109210022NNO6NNO0

Graphique du 23-11-2019

 

Serveur OMMA